sensor_id;sensor_type;location;lat;lon;timestamp;P1;durP1;ratioP1;P2;durP2;ratioP2
21507;SDS011;10915;54.352;9.074;2023-04-01T00:00:28;50.00;;;29.83;;
21507;SDS011;10915;54.352;9.074;2023-04-01T00:02:53;51.53;;;28.53;;
21507;SDS011;10915;54.352;9.074;2023-04-01T00:05:20;48.53;;;29.23;;
21507;SDS011;10915;54.352;9.074;2023-04-01T00:07:46;55.20;;;32.17;;
21507;SDS011;10915;54.352;9.074;2023-04-01T00:10:12;65.30;;;32.60;;
21507;SDS011;10915;54.352;9.074;2023-04-01T00:12:38;69.30;;;33.87;;
21507;SDS011;10915;54.352;9.074;2023-04-01T00:15:05;71.07;;;35.00;;
21507;SDS011;10915;54.352;9.074;2023-04-01T00:17:32;81.20;;;38.57;;
21507;SDS011;10915;54.352;9.074;2023-04-01T00:19:59;86.50;;;40.13;;
21507;SDS011;10915;54.352;9.074;2023-04-01T00:22:25;85.30;;;39.97;;
21507;SDS011;10915;54.352;9.074;2023-04-01T00:24:52;95.90;;;41.30;;
21507;SDS011;10915;54.352;9.074;2023-04-01T00:27:18;102.07;;;41.80;;
21507;SDS011;10915;54.352;9.074;2023-04-01T00:29:45;88.00;;;39.30;;
21507;SDS011;10915;54.352;9.074;2023-04-01T00:32:12;107.23;;;41.60;;
21507;SDS011;10915;54.352;9.074;2023-04-01T00:34:38;98.80;;;39.43;;
21507;SDS011;10915;54.352;9.074;2023-04-01T00:37:05;110.20;;;41.73;;
21507;SDS011;10915;54.352;9.074;2023-04-01T00:39:31;101.00;;;40.53;;
21507;SDS011;10915;54.352;9.074;2023-04-01T00:41:58;97.73;;;39.73;;
21507;SDS011;10915;54.352;9.074;2023-04-01T00:44:29;103.60;;;40.50;;
21507;SDS011;10915;54.352;9.074;2023-04-01T00:46:56;119.03;;;41.80;;
21507;SDS011;10915;54.352;9.074;2023-04-01T00:49:22;113.10;;;42.50;;
21507;SDS011;10915;54.352;9.074;2023-04-01T00:51:51;123.57;;;43.83;;
21507;SDS011;10915;54.352;9.074;2023-04-01T00:54:20;120.07;;;42.17;;
21507;SDS011;10915;54.352;9.074;2023-04-01T00:56:53;111.23;;;39.47;;
21507;SDS011;10915;54.352;9.074;2023-04-01T00:59:29;100.30;;;38.80;;
21507;SDS011;10915;54.352;9.074;2023-04-01T01:02:01;86.17;;;38.07;;
21507;SDS011;10915;54.352;9.074;2023-04-01T01:04:28;110.60;;;40.70;;
21507;SDS011;10915;54.352;9.074;2023-04-01T01:09:47;67.80;;;34.27;;
21507;SDS011;10915;54.352;9.074;2023-04-01T01:23:19;38.17;;;22.90;;
21507;SDS011;10915;54.352;9.074;2023-04-01T01:34:48;31.50;;;18.43;;
21507;SDS011;10915;54.352;9.074;2023-04-01T01:37:29;27.60;;;18.20;;
21507;SDS011;10915;54.352;9.074;2023-04-01T01:39:58;29.67;;;17.27;;
21507;SDS011;10915;54.352;9.074;2023-04-01T01:42:28;27.33;;;16.00;;
21507;SDS011;10915;54.352;9.074;2023-04-01T01:44:57;24.90;;;15.60;;
21507;SDS011;10915;54.352;9.074;2023-04-01T01:47:25;22.70;;;15.27;;
21507;SDS011;10915;54.352;9.074;2023-04-01T01:49:53;25.00;;;16.27;;
21507;SDS011;10915;54.352;9.074;2023-04-01T01:52:21;23.40;;;15.30;;
21507;SDS011;10915;54.352;9.074;2023-04-01T01:54:51;22.10;;;15.53;;
21507;SDS011;10915;54.352;9.074;2023-04-01T01:57:20;23.43;;;16.20;;
21507;SDS011;10915;54.352;9.074;2023-04-01T01:59:50;22.40;;;15.80;;
21507;SDS011;10915;54.352;9.074;2023-04-01T02:02:20;24.23;;;16.47;;
21507;SDS011;10915;54.352;9.074;2023-04-01T02:04:47;23.10;;;16.57;;
21507;SDS011;10915;54.352;9.074;2023-04-01T02:07:16;23.43;;;17.57;;
21507;SDS011;10915;54.352;9.074;2023-04-01T02:09:46;24.90;;;16.57;;
21507;SDS011;10915;54.352;9.074;2023-04-01T02:12:13;20.17;;;15.33;;
21507;SDS011;10915;54.352;9.074;2023-04-01T02:17:29;21.40;;;13.97;;
21507;SDS011;10915;54.352;9.074;2023-04-01T02:19:57;20.33;;;13.57;;
21507;SDS011;10915;54.352;9.074;2023-04-01T02:22:26;17.70;;;12.83;;
21507;SDS011;10915;54.352;9.074;2023-04-01T02:24:56;18.13;;;11.93;;
21507;SDS011;10915;54.352;9.074;2023-04-01T02:27:24;13.90;;;10.63;;
21507;SDS011;10915;54.352;9.074;2023-04-01T02:29:51;14.83;;;11.70;;
21507;SDS011;10915;54.352;9.074;2023-04-01T02:32:17;16.87;;;11.93;;
21507;SDS011;10915;54.352;9.074;2023-04-01T02:34:45;19.87;;;13.33;;
21507;SDS011;10915;54.352;9.074;2023-04-01T02:37:11;16.80;;;12.43;;
21507;SDS011;10915;54.352;9.074;2023-04-01T02:39:38;16.10;;;12.07;;
21507;SDS011;10915;54.352;9.074;2023-04-01T02:42:04;13.53;;;10.30;;
21507;SDS011;10915;54.352;9.074;2023-04-01T02:44:30;15.43;;;11.37;;
21507;SDS011;10915;54.352;9.074;2023-04-01T02:46:56;18.20;;;12.13;;
21507;SDS011;10915;54.352;9.074;2023-04-01T02:49:22;14.30;;;11.37;;
21507;SDS011;10915;54.352;9.074;2023-04-01T02:51:47;14.27;;;11.33;;
21507;SDS011;10915;54.352;9.074;2023-04-01T02:54:13;15.90;;;12.20;;
21507;SDS011;10915;54.352;9.074;2023-04-01T02:56:39;16.57;;;11.93;;
21507;SDS011;10915;54.352;9.074;2023-04-01T02:59:04;15.80;;;11.37;;
21507;SDS011;10915;54.352;9.074;2023-04-01T03:01:30;12.87;;;9.67;;
21507;SDS011;10915;54.352;9.074;2023-04-01T03:03:55;14.40;;;9.00;;
21507;SDS011;10915;54.352;9.074;2023-04-01T03:06:21;12.47;;;8.07;;
21507;SDS011;10915;54.352;9.074;2023-04-01T03:08:47;13.37;;;7.07;;
21507;SDS011;10915;54.352;9.074;2023-04-01T03:11:13;9.40;;;5.97;;
21507;SDS011;10915;54.352;9.074;2023-04-01T03:13:38;9.20;;;5.77;;
21507;SDS011;10915;54.352;9.074;2023-04-01T03:16:04;9.80;;;6.50;;
21507;SDS011;10915;54.352;9.074;2023-04-01T03:18:30;9.20;;;6.37;;
21507;SDS011;10915;54.352;9.074;2023-04-01T03:20:55;9.57;;;5.77;;
21507;SDS011;10915;54.352;9.074;2023-04-01T03:23:21;9.87;;;5.57;;
21507;SDS011;10915;54.352;9.074;2023-04-01T03:25:49;8.20;;;5.30;;
21507;SDS011;10915;54.352;9.074;2023-04-01T03:28:15;7.33;;;5.20;;
21507;SDS011;10915;54.352;9.074;2023-04-01T03:30:40;7.53;;;4.57;;
21507;SDS011;10915;54.352;9.074;2023-04-01T03:33:06;9.87;;;5.00;;
21507;SDS011;10915;54.352;9.074;2023-04-01T03:35:32;9.40;;;5.23;;
21507;SDS011;10915;54.352;9.074;2023-04-01T03:37:58;10.30;;;4.63;;
21507;SDS011;10915;54.352;9.074;2023-04-01T03:40:23;9.17;;;4.57;;
21507;SDS011;10915;54.352;9.074;2023-04-01T03:42:51;6.40;;;4.03;;
21507;SDS011;10915;54.352;9.074;2023-04-01T03:45:17;9.03;;;3.97;;
21507;SDS011;10915;54.352;9.074;2023-04-01T03:47:43;8.07;;;3.90;;
21507;SDS011;10915;54.352;9.074;2023-04-01T03:50:08;6.70;;;3.90;;
21507;SDS011;10915;54.352;9.074;2023-04-01T03:52:35;6.70;;;3.70;;
21507;SDS011;10915;54.352;9.074;2023-04-01T03:55:01;9.07;;;3.93;;
21507;SDS011;10915;54.352;9.074;2023-04-01T03:57:27;9.63;;;3.80;;
21507;SDS011;10915;54.352;9.074;2023-04-01T03:59:52;9.03;;;4.07;;
21507;SDS011;10915;54.352;9.074;2023-04-01T04:02:18;9.17;;;3.43;;
21507;SDS011;10915;54.352;9.074;2023-04-01T04:04:44;7.07;;;2.70;;
21507;SDS011;10915;54.352;9.074;2023-04-01T04:07:11;7.53;;;3.40;;
21507;SDS011;10915;54.352;9.074;2023-04-01T04:09:37;7.90;;;3.63;;
21507;SDS011;10915;54.352;9.074;2023-04-01T04:12:02;5.27;;;3.27;;
21507;SDS011;10915;54.352;9.074;2023-04-01T04:14:30;7.33;;;3.30;;
21507;SDS011;10915;54.352;9.074;2023-04-01T04:16:56;5.43;;;2.53;;
21507;SDS011;10915;54.352;9.074;2023-04-01T04:19:21;4.93;;;2.40;;
21507;SDS011;10915;54.352;9.074;2023-04-01T04:21:47;4.90;;;2.13;;
21507;SDS011;10915;54.352;9.074;2023-04-01T04:24:12;5.90;;;2.30;;
21507;SDS011;10915;54.352;9.074;2023-04-01T04:26:38;4.97;;;2.63;;
21507;SDS011;10915;54.352;9.074;2023-04-01T04:29:03;6.10;;;2.97;;
21507;SDS011;10915;54.352;9.074;2023-04-01T04:31:29;7.73;;;3.73;;
21507;SDS011;10915;54.352;9.074;2023-04-01T04:33:55;6.67;;;3.27;;
21507;SDS011;10915;54.352;9.074;2023-04-01T04:36:21;7.57;;;3.37;;
21507;SDS011;10915;54.352;9.074;2023-04-01T04:38:47;4.83;;;2.80;;
21507;SDS011;10915;54.352;9.074;2023-04-01T04:41:13;4.23;;;2.97;;
21507;SDS011;10915;54.352;9.074;2023-04-01T04:43:40;6.47;;;3.70;;
21507;SDS011;10915;54.352;9.074;2023-04-01T04:46:09;5.10;;;2.97;;
21507;SDS011;10915;54.352;9.074;2023-04-01T04:48:35;5.60;;;3.33;;
21507;SDS011;10915;54.352;9.074;2023-04-01T04:51:02;7.60;;;3.80;;
21507;SDS011;10915;54.352;9.074;2023-04-01T04:53:28;6.53;;;3.70;;
21507;SDS011;10915;54.352;9.074;2023-04-01T05:10:17;7.63;;;4.53;;
21507;SDS011;10915;54.352;9.074;2023-04-01T05:37:33;3.23;;;2.13;;
21507;SDS011;10915;54.352;9.074;2023-04-01T05:43:48;4.30;;;1.90;;
21507;SDS011;10915;54.352;9.074;2023-04-01T07:09:35;4.03;;;2.40;;
21507;SDS011;10915;54.352;9.074;2023-04-01T07:26:23;6.23;;;2.70;;
21507;SDS011;10915;54.352;9.074;2023-04-01T07:29:00;5.70;;;2.97;;
21507;SDS011;10915;54.352;9.074;2023-04-01T07:32:04;3.90;;;2.40;;
21507;SDS011;10915;54.352;9.074;2023-04-01T07:53:50;4.17;;;2.60;;
21507;SDS011;10915;54.352;9.074;2023-04-01T08:22:20;4.60;;;2.70;;
21507;SDS011;10915;54.352;9.074;2023-04-01T09:35:21;13.00;;;8.00;;
21507;SDS011;10915;54.352;9.074;2023-04-01T09:44:37;13.20;;;6.93;;
21507;SDS011;10915;54.352;9.074;2023-04-01T10:25:53;16.10;;;9.23;;
21507;SDS011;10915;54.352;9.074;2023-04-01T11:13:04;14.77;;;7.90;;
21507;SDS011;10915;54.352;9.074;2023-04-01T11:32:43;14.40;;;7.27;;
21507;SDS011;10915;54.352;9.074;2023-04-01T11:46:49;11.80;;;7.50;;
21507;SDS011;10915;54.352;9.074;2023-04-01T11:55:25;13.37;;;7.30;;
21507;SDS011;10915;54.352;9.074;2023-04-01T12:00:57;11.83;;;6.23;;
21507;SDS011;10915;54.352;9.074;2023-04-01T12:04:04;14.17;;;7.53;;
21507;SDS011;10915;54.352;9.074;2023-04-01T12:07:06;12.70;;;6.87;;
21507;SDS011;10915;54.352;9.074;2023-04-01T12:10:12;11.67;;;6.90;;
21507;SDS011;10915;54.352;9.074;2023-04-01T12:15:18;15.53;;;7.30;;
21507;SDS011;10915;54.352;9.074;2023-04-01T12:29:28;10.03;;;6.07;;
21507;SDS011;10915;54.352;9.074;2023-04-01T12:49:09;11.17;;;5.63;;
21507;SDS011;10915;54.352;9.074;2023-04-01T12:54:53;12.13;;;5.80;;
21507;SDS011;10915;54.352;9.074;2023-04-01T13:08:42;14.10;;;5.63;;
21507;SDS011;10915;54.352;9.074;2023-04-01T13:19:35;11.00;;;5.00;;
21507;SDS011;10915;54.352;9.074;2023-04-01T13:22:23;10.53;;;5.20;;
21507;SDS011;10915;54.352;9.074;2023-04-01T13:25:06;8.93;;;4.70;;
21507;SDS011;10915;54.352;9.074;2023-04-01T13:27:49;10.60;;;5.27;;
21507;SDS011;10915;54.352;9.074;2023-04-01T13:30:39;11.80;;;5.40;;
21507;SDS011;10915;54.352;9.074;2023-04-01T13:38:52;10.77;;;5.10;;
21507;SDS011;10915;54.352;9.074;2023-04-01T13:41:45;13.10;;;5.63;;
21507;SDS011;10915;54.352;9.074;2023-04-01T13:47:16;12.70;;;4.30;;
21507;SDS011;10915;54.352;9.074;2023-04-01T13:50:04;11.53;;;4.93;;
21507;SDS011;10915;54.352;9.074;2023-04-01T13:52:53;10.80;;;5.37;;
21507;SDS011;10915;54.352;9.074;2023-04-01T14:01:07;10.80;;;4.93;;
21507;SDS011;10915;54.352;9.074;2023-04-01T14:34:00;9.80;;;4.60;;
21507;SDS011;10915;54.352;9.074;2023-04-01T14:50:06;10.47;;;4.07;;
21507;SDS011;10915;54.352;9.074;2023-04-01T14:52:39;9.20;;;3.67;;
21507;SDS011;10915;54.352;9.074;2023-04-01T14:58:15;9.07;;;3.90;;
21507;SDS011;10915;54.352;9.074;2023-04-01T15:00:50;10.27;;;3.77;;
21507;SDS011;10915;54.352;9.074;2023-04-01T15:06:11;8.57;;;3.70;;
21507;SDS011;10915;54.352;9.074;2023-04-01T15:20:16;9.50;;;3.90;;
21507;SDS011;10915;54.352;9.074;2023-04-01T15:23:07;7.30;;;3.33;;
21507;SDS011;10915;54.352;9.074;2023-04-01T15:31:16;9.37;;;3.33;;
21507;SDS011;10915;54.352;9.074;2023-04-01T15:34:12;9.23;;;3.10;;
21507;SDS011;10915;54.352;9.074;2023-04-01T15:39:20;6.67;;;2.63;;
21507;SDS011;10915;54.352;9.074;2023-04-01T15:55:31;6.97;;;2.70;;
21507;SDS011;10915;54.352;9.074;2023-04-01T16:03:40;9.80;;;3.40;;
21507;SDS011;10915;54.352;9.074;2023-04-01T16:06:14;7.53;;;3.30;;
21507;SDS011;10915;54.352;9.074;2023-04-01T16:22:35;7.57;;;3.00;;
21507;SDS011;10915;54.352;9.074;2023-04-01T16:25:26;8.63;;;2.80;;
21507;SDS011;10915;54.352;9.074;2023-04-01T16:27:56;8.17;;;3.00;;
21507;SDS011;10915;54.352;9.074;2023-04-01T16:31:30;9.53;;;2.70;;
21507;SDS011;10915;54.352;9.074;2023-04-01T16:33:44;8.27;;;2.70;;
21507;SDS011;10915;54.352;9.074;2023-04-01T16:41:42;6.30;;;2.67;;
21507;SDS011;10915;54.352;9.074;2023-04-01T16:44:20;8.03;;;2.73;;
21507;SDS011;10915;54.352;9.074;2023-04-01T16:46:50;8.53;;;2.53;;
21507;SDS011;10915;54.352;9.074;2023-04-01T16:49:22;11.07;;;3.27;;
21507;SDS011;10915;54.352;9.074;2023-04-01T16:54:47;6.87;;;2.50;;
21507;SDS011;10915;54.352;9.074;2023-04-01T17:06:54;6.47;;;2.47;;
21507;SDS011;10915;54.352;9.074;2023-04-01T17:25:25;7.53;;;2.53;;
21507;SDS011;10915;54.352;9.074;2023-04-01T17:30:57;8.60;;;2.80;;
21507;SDS011;10915;54.352;9.074;2023-04-01T17:33:42;10.10;;;2.67;;
21507;SDS011;10915;54.352;9.074;2023-04-01T18:04:15;6.53;;;2.00;;
21507;SDS011;10915;54.352;9.074;2023-04-01T18:23:51;4.93;;;1.80;;
21507;SDS011;10915;54.352;9.074;2023-04-01T18:26:23;6.70;;;2.00;;
21507;SDS011;10915;54.352;9.074;2023-04-01T18:28:57;5.27;;;2.20;;
21507;SDS011;10915;54.352;9.074;2023-04-01T18:31:38;7.90;;;2.50;;
21507;SDS011;10915;54.352;9.074;2023-04-01T18:34:12;8.50;;;2.13;;
21507;SDS011;10915;54.352;9.074;2023-04-01T18:36:45;7.73;;;2.47;;
21507;SDS011;10915;54.352;9.074;2023-04-01T18:44:52;8.47;;;1.83;;
21507;SDS011;10915;54.352;9.074;2023-04-01T18:52:36;9.20;;;2.70;;
21507;SDS011;10915;54.352;9.074;2023-04-01T18:57:39;6.63;;;1.93;;
21507;SDS011;10915;54.352;9.074;2023-04-01T19:00:13;4.27;;;1.70;;
21507;SDS011;10915;54.352;9.074;2023-04-01T19:03:16;5.83;;;1.80;;
21507;SDS011;10915;54.352;9.074;2023-04-01T19:05:44;7.00;;;1.77;;
21507;SDS011;10915;54.352;9.074;2023-04-01T19:08:20;4.80;;;1.83;;
21507;SDS011;10915;54.352;9.074;2023-04-01T19:13:34;5.97;;;1.70;;
21507;SDS011;10915;54.352;9.074;2023-04-01T19:16:21;5.57;;;1.63;;
21507;SDS011;10915;54.352;9.074;2023-04-01T19:21:42;4.73;;;1.70;;
21507;SDS011;10915;54.352;9.074;2023-04-01T19:24:25;6.00;;;1.80;;
21507;SDS011;10915;54.352;9.074;2023-04-01T19:27:08;5.63;;;1.93;;
21507;SDS011;10915;54.352;9.074;2023-04-01T19:32:42;6.07;;;1.93;;
21507;SDS011;10915;54.352;9.074;2023-04-01T19:35:42;6.30;;;1.67;;
21507;SDS011;10915;54.352;9.074;2023-04-01T19:38:17;6.80;;;2.13;;
21507;SDS011;10915;54.352;9.074;2023-04-01T19:41:10;8.43;;;2.07;;
21507;SDS011;10915;54.352;9.074;2023-04-01T19:44:03;4.73;;;2.00;;
21507;SDS011;10915;54.352;9.074;2023-04-01T19:46:53;7.23;;;2.10;;
21507;SDS011;10915;54.352;9.074;2023-04-01T19:49:36;6.20;;;2.20;;
21507;SDS011;10915;54.352;9.074;2023-04-01T19:52:18;5.50;;;2.10;;
21507;SDS011;10915;54.352;9.074;2023-04-01T19:54:57;8.57;;;2.67;;
21507;SDS011;10915;54.352;9.074;2023-04-01T19:57:41;7.83;;;2.10;;
21507;SDS011;10915;54.352;9.074;2023-04-01T20:00:34;5.63;;;2.00;;
21507;SDS011;10915;54.352;9.074;2023-04-01T20:05:44;7.60;;;2.80;;
21507;SDS011;10915;54.352;9.074;2023-04-01T20:08:17;6.60;;;2.40;;
21507;SDS011;10915;54.352;9.074;2023-04-01T20:11:11;5.10;;;1.93;;
21507;SDS011;10915;54.352;9.074;2023-04-01T20:13:52;6.03;;;2.40;;
21507;SDS011;10915;54.352;9.074;2023-04-01T20:16:48;9.80;;;2.80;;
21507;SDS011;10915;54.352;9.074;2023-04-01T20:19:35;10.23;;;3.00;;
21507;SDS011;10915;54.352;9.074;2023-04-01T20:22:04;7.23;;;2.30;;
21507;SDS011;10915;54.352;9.074;2023-04-01T20:24:41;8.70;;;2.70;;
21507;SDS011;10915;54.352;9.074;2023-04-01T20:37:57;9.53;;;2.50;;
21507;SDS011;10915;54.352;9.074;2023-04-01T20:40:49;7.50;;;2.43;;
21507;SDS011;10915;54.352;9.074;2023-04-01T20:43:30;5.50;;;2.27;;
21507;SDS011;10915;54.352;9.074;2023-04-01T20:46:15;10.00;;;2.50;;
21507;SDS011;10915;54.352;9.074;2023-04-01T20:49:07;9.53;;;2.70;;
21507;SDS011;10915;54.352;9.074;2023-04-01T20:52:32;6.70;;;1.90;;
21507;SDS011;10915;54.352;9.074;2023-04-01T21:00:52;8.37;;;2.60;;
21507;SDS011;10915;54.352;9.074;2023-04-01T21:24:44;11.00;;;2.73;;
21507;SDS011;10915;54.352;9.074;2023-04-01T21:35:36;8.40;;;2.60;;
21507;SDS011;10915;54.352;9.074;2023-04-01T21:38:15;9.83;;;3.03;;
21507;SDS011;10915;54.352;9.074;2023-04-01T21:40:56;6.47;;;2.67;;
21507;SDS011;10915;54.352;9.074;2023-04-01T21:49:48;8.27;;;3.23;;
21507;SDS011;10915;54.352;9.074;2023-04-01T21:58:07;8.30;;;2.53;;
21507;SDS011;10915;54.352;9.074;2023-04-01T22:06:47;7.10;;;3.13;;
21507;SDS011;10915;54.352;9.074;2023-04-01T22:09:27;10.33;;;2.73;;
21507;SDS011;10915;54.352;9.074;2023-04-01T22:17:18;9.07;;;2.63;;
21507;SDS011;10915;54.352;9.074;2023-04-01T22:25:28;9.10;;;3.10;;
21507;SDS011;10915;54.352;9.074;2023-04-01T22:27:58;9.30;;;3.00;;
21507;SDS011;10915;54.352;9.074;2023-04-01T22:30:38;9.17;;;2.73;;
21507;SDS011;10915;54.352;9.074;2023-04-01T22:33:13;5.43;;;2.47;;
21507;SDS011;10915;54.352;9.074;2023-04-01T22:35:48;17.10;;;2.93;;
21507;SDS011;10915;54.352;9.074;2023-04-01T22:43:49;8.77;;;2.53;;
21507;SDS011;10915;54.352;9.074;2023-04-01T22:46:31;6.83;;;2.37;;
21507;SDS011;10915;54.352;9.074;2023-04-01T22:59:24;9.13;;;2.80;;
21507;SDS011;10915;54.352;9.074;2023-04-01T23:02:01;7.37;;;2.20;;
21507;SDS011;10915;54.352;9.074;2023-04-01T23:04:35;10.27;;;2.60;;
21507;SDS011;10915;54.352;9.074;2023-04-01T23:10:49;7.53;;;2.33;;
21507;SDS011;10915;54.352;9.074;2023-04-01T23:13:14;6.40;;;2.30;;
21507;SDS011;10915;54.352;9.074;2023-04-01T23:15:44;8.73;;;2.50;;
21507;SDS011;10915;54.352;9.074;2023-04-01T23:18:22;8.07;;;2.63;;
21507;SDS011;10915;54.352;9.074;2023-04-01T23:20:56;6.67;;;2.67;;
21507;SDS011;10915;54.352;9.074;2023-04-01T23:29:17;6.37;;;2.30;;
21507;SDS011;10915;54.352;9.074;2023-04-01T23:31:45;10.23;;;2.50;;
21507;SDS011;10915;54.352;9.074;2023-04-01T23:36:38;5.87;;;2.63;;
21507;SDS011;10915;54.352;9.074;2023-04-01T23:41:56;7.73;;;2.70;;
21507;SDS011;10915;54.352;9.074;2023-04-01T23:44:26;5.43;;;2.50;;
21507;SDS011;10915;54.352;9.074;2023-04-01T23:46:53;6.53;;;2.50;;
21507;SDS011;10915;54.352;9.074;2023-04-01T23:49:21;6.87;;;2.33;;
21507;SDS011;10915;54.352;9.074;2023-04-01T23:54:42;7.47;;;2.30;;
21507;SDS011;10915;54.352;9.074;2023-04-01T23:57:13;6.73;;;2.40;;
21507;SDS011;10915;54.352;9.074;2023-04-01T23:59:42;7.40;;;2.73;;
